createdAt,value
2019-03-12T00:02:08.146Z,3.13
2019-03-12T00:04:37.778Z,2.67
2019-03-12T00:07:07.543Z,5.00
2019-03-12T00:09:37.097Z,3.17
2019-03-12T00:12:08.012Z,3.80
2019-03-12T00:14:37.642Z,2.60
2019-03-12T00:17:07.299Z,3.23
2019-03-12T00:19:38.166Z,5.07
2019-03-12T00:22:07.828Z,3.53
2019-03-12T00:24:37.458Z,4.53
2019-03-12T00:27:07.120Z,3.47
2019-03-12T00:29:36.758Z,8.23
2019-03-12T00:32:07.658Z,6.53
2019-03-12T00:34:37.323Z,6.23
2019-03-12T00:37:06.962Z,5.53
2019-03-12T00:39:36.590Z,7.60
2019-03-12T00:42:06.220Z,6.97
2019-03-12T00:44:35.821Z,7.20
2019-03-12T00:47:06.716Z,6.77
2019-03-12T00:49:36.338Z,3.23
2019-03-12T00:52:05.937Z,4.43
2019-03-12T00:54:35.575Z,3.47
2019-03-12T00:57:05.197Z,4.17
2019-03-12T00:59:34.809Z,3.10
2019-03-12T01:02:04.446Z,5.50
2019-03-12T01:04:34.061Z,3.07
2019-03-12T01:07:03.665Z,2.80
2019-03-12T01:09:33.313Z,3.93
2019-03-12T01:12:02.921Z,3.20
2019-03-12T01:14:35.029Z,2.07
2019-03-12T01:17:04.617Z,2.50
2019-03-12T01:19:34.221Z,2.03
2019-03-12T01:22:03.849Z,2.67
2019-03-12T01:24:33.460Z,1.53
2019-03-12T01:27:03.067Z,3.07
2019-03-12T01:29:32.714Z,4.73
2019-03-12T01:32:02.310Z,5.77
2019-03-12T01:34:31.937Z,4.57
2019-03-12T01:37:01.535Z,5.10
2019-03-12T01:39:31.165Z,4.40
2019-03-12T01:42:00.782Z,6.17
2019-03-12T01:44:30.413Z,7.53
2019-03-12T01:47:00.016Z,8.57
2019-03-12T01:49:29.665Z,6.93
2019-03-12T01:51:59.330Z,6.03
2019-03-12T01:54:28.892Z,6.30
2019-03-12T01:56:58.573Z,4.27
2019-03-12T01:59:28.177Z,10.63
2019-03-12T02:01:57.979Z,3.60
2019-03-12T02:04:27.596Z,5.20
2019-03-12T02:06:57.593Z,3.93
2019-03-12T02:09:26.797Z,5.03
2019-03-12T02:11:56.405Z,5.10
2019-03-12T02:14:27.670Z,5.23
2019-03-12T02:16:57.264Z,2.40
2019-03-12T02:19:26.872Z,3.67
2019-03-12T02:21:56.480Z,3.47
2019-03-12T02:24:26.102Z,3.43
2019-03-12T02:26:55.705Z,2.50
2019-03-12T02:29:25.313Z,3.93
2019-03-12T02:31:55.084Z,1.97
2019-03-12T02:34:24.683Z,4.50
2019-03-12T02:36:54.294Z,4.33
2019-03-12T02:39:23.910Z,1.60
2019-03-12T02:41:53.550Z,2.70
2019-03-12T02:44:23.229Z,1.63
2019-03-12T02:46:52.830Z,2.90
2019-03-12T02:49:22.433Z,1.87
2019-03-12T02:51:52.093Z,2.07
2019-03-12T02:54:21.711Z,1.90
2019-03-12T02:56:51.330Z,1.90
2019-03-12T02:59:20.965Z,1.73
2019-03-12T03:01:50.604Z,1.97
2019-03-12T03:04:20.248Z,1.63
2019-03-12T03:06:54.208Z,1.17
2019-03-12T03:09:23.818Z,1.23
2019-03-12T03:11:53.445Z,1.50
2019-03-12T03:14:30.729Z,2.53
2019-03-12T03:17:00.320Z,3.43
2019-03-12T03:19:29.951Z,5.60
2019-03-12T03:21:59.590Z,3.83
2019-03-12T03:24:30.409Z,3.70
2019-03-12T03:27:00.024Z,13.10
2019-03-12T03:29:29.622Z,5.47
2019-03-12T03:31:59.233Z,3.13
2019-03-12T03:34:29.192Z,3.53
2019-03-12T03:36:58.502Z,4.10
2019-03-12T03:39:28.119Z,3.23
2019-03-12T03:41:57.744Z,2.10
2019-03-12T03:44:27.366Z,2.30
2019-03-12T03:46:57.062Z,3.97
2019-03-12T03:49:27.034Z,3.43
2019-03-12T03:51:56.671Z,1.70
2019-03-12T03:54:26.332Z,2.30
2019-03-12T03:56:57.132Z,3.90
2019-03-12T03:59:26.761Z,2.87
2019-03-12T04:01:57.594Z,5.63
2019-03-12T04:04:27.342Z,1.80
2019-03-12T04:06:56.978Z,1.40
2019-03-12T04:09:26.585Z,2.83
2019-03-12T04:11:56.233Z,5.67
2019-03-12T04:14:25.855Z,4.23
2019-03-12T04:16:55.696Z,4.33
2019-03-12T04:19:25.346Z,2.73
2019-03-12T04:21:54.936Z,4.83
2019-03-12T04:24:24.534Z,2.13
2019-03-12T04:26:54.191Z,2.87
2019-03-12T04:29:23.806Z,2.47
2019-03-12T04:31:53.421Z,3.03
2019-03-12T04:34:27.547Z,1.83
2019-03-12T04:36:57.154Z,2.83
2019-03-12T04:39:26.758Z,2.37
2019-03-12T04:41:56.381Z,2.70
2019-03-12T04:44:25.992Z,2.20
2019-03-12T04:46:55.575Z,2.03
2019-03-12T04:49:25.193Z,5.20
2019-03-12T04:51:54.896Z,2.60
2019-03-12T04:54:24.518Z,4.10
2019-03-12T04:56:54.113Z,1.87
2019-03-12T04:59:23.742Z,3.33
2019-03-12T05:01:53.390Z,3.95
2019-03-12T05:04:23.125Z,2.87
2019-03-12T05:06:52.730Z,5.40
2019-03-12T05:09:22.349Z,5.60
2019-03-12T05:11:52.063Z,3.93
2019-03-12T05:14:29.337Z,7.33
2019-03-12T05:17:15.213Z,6.20
2019-03-12T05:19:45.756Z,6.27
2019-03-12T05:22:16.781Z,6.80
2019-03-12T05:24:46.380Z,6.27
2019-03-12T05:27:17.292Z,6.97
2019-03-12T05:29:48.112Z,7.20
2019-03-12T05:32:17.810Z,6.23
2019-03-12T05:34:47.489Z,3.87
2019-03-12T05:37:17.214Z,6.77
2019-03-12T05:39:46.822Z,6.23
2019-03-12T05:42:16.448Z,5.67
2019-03-12T05:44:47.288Z,12.37
2019-03-12T05:47:16.933Z,7.70
2019-03-12T05:49:46.541Z,9.07
2019-03-12T05:52:16.135Z,5.67
2019-03-12T05:54:45.735Z,7.37
2019-03-12T05:57:15.372Z,11.63
2019-03-12T05:59:44.994Z,13.67
2019-03-12T06:02:14.614Z,15.37
2019-03-12T06:04:44.229Z,21.27
2019-03-12T06:07:13.840Z,18.30
2019-03-12T06:09:43.657Z,10.53
2019-03-12T06:12:13.261Z,9.50
2019-03-12T06:14:44.429Z,4.23
2019-03-12T06:17:14.025Z,5.10
2019-03-12T06:19:43.630Z,4.30
2019-03-12T06:22:13.233Z,4.63
2019-03-12T06:24:42.852Z,10.67
2019-03-12T06:27:12.600Z,11.83
2019-03-12T06:29:42.218Z,15.00
2019-03-12T06:33:24.189Z,13.20
2019-03-12T06:35:54.633Z,15.57
2019-03-12T06:38:44.829Z,16.63
2019-03-12T06:41:26.825Z,10.67
2019-03-12T06:44:00.707Z,9.77
2019-03-12T06:46:35.533Z,10.13
2019-03-12T06:49:13.924Z,10.97
2019-03-12T06:52:21.528Z,12.43
2019-03-12T06:54:59.426Z,12.57
2019-03-12T06:57:37.345Z,18.77
2019-03-12T07:00:13.902Z,17.00
2019-03-12T07:02:54.791Z,8.73
2019-03-12T07:05:29.971Z,14.50
2019-03-12T07:08:06.368Z,10.67
2019-03-12T07:10:41.065Z,13.67
2019-03-12T07:13:15.810Z,11.67
2019-03-12T07:15:51.933Z,10.63
2019-03-12T07:18:27.078Z,7.07
2019-03-12T07:21:01.846Z,9.00
2019-03-12T07:24:43.961Z,10.40
2019-03-12T07:27:23.938Z,8.03
2019-03-12T07:30:56.845Z,7.23
2019-03-12T07:33:32.612Z,4.40
2019-03-12T07:36:08.392Z,4.47
2019-03-12T07:38:43.025Z,7.77
2019-03-12T07:41:25.022Z,3.97
2019-03-12T07:43:57.642Z,6.80
2019-03-12T07:46:33.336Z,2.60
2019-03-12T07:49:11.200Z,6.70
2019-03-12T07:52:22.683Z,8.00
2019-03-12T07:55:09.683Z,6.20
2019-03-12T07:57:46.478Z,8.47
2019-03-12T08:00:23.133Z,19.53
2019-03-12T08:02:57.044Z,6.43
2019-03-12T08:05:35.881Z,7.23
2019-03-12T08:08:41.750Z,8.10
2019-03-12T08:11:16.577Z,10.33
2019-03-12T08:13:50.454Z,9.47
2019-03-12T08:16:24.310Z,8.77
2019-03-12T08:19:01.181Z,8.07
2019-03-12T08:21:38.145Z,4.20
2019-03-12T08:24:17.030Z,4.40
2019-03-12T08:26:54.626Z,4.97
2019-03-12T08:29:32.626Z,3.83
2019-03-12T08:32:06.855Z,3.58
2019-03-12T08:35:12.995Z,4.62
2019-03-12T08:37:46.872Z,4.70
2019-03-12T08:40:55.532Z,10.63
2019-03-12T08:43:33.417Z,11.03
2019-03-12T08:46:13.477Z,19.05
2019-03-12T08:48:50.161Z,13.48
2019-03-12T08:51:25.038Z,10.58
2019-03-12T08:54:17.168Z,10.00
2019-03-12T08:56:55.330Z,8.45
2019-03-12T09:00:32.104Z,7.25
2019-03-12T09:03:10.831Z,10.88
2019-03-12T09:05:44.720Z,10.08
2019-03-12T09:08:20.670Z,8.23
2019-03-12T09:11:26.872Z,9.93
2019-03-12T09:14:00.832Z,3.02
2019-03-12T09:16:38.782Z,9.98
2019-03-12T09:20:14.436Z,7.92
2019-03-12T09:23:20.829Z,14.33
2019-03-12T09:26:05.910Z,9.75
2019-03-12T09:28:41.559Z,4.85
2019-03-12T09:31:16.606Z,5.53
2019-03-12T09:33:53.526Z,7.53
2019-03-12T09:38:38.953Z,10.75
2019-03-12T09:41:17.090Z,2.30
2019-03-12T09:43:59.131Z,3.30
2019-03-12T09:46:34.162Z,4.92
2019-03-12T09:49:09.232Z,18.75
2019-03-12T09:51:48.051Z,6.85
2019-03-12T09:56:25.954Z,6.40
2019-03-12T10:00:01.239Z,6.70
2019-03-12T10:02:35.096Z,9.95
2019-03-12T10:05:09.017Z,4.33
2019-03-12T10:07:42.871Z,4.23
2019-03-12T10:10:17.510Z,11.50
2019-03-12T10:12:55.506Z,8.03
2019-03-12T10:15:33.675Z,6.30
2019-03-12T10:18:08.727Z,15.60
2019-03-12T10:20:43.502Z,6.97
2019-03-12T10:23:17.477Z,3.90
2019-03-12T10:26:25.596Z,2.80
2019-03-12T10:29:00.697Z,8.33
2019-03-12T10:31:45.598Z,5.67
2019-03-12T10:34:29.523Z,5.03
2019-03-12T10:37:13.128Z,7.97
2019-03-12T10:40:57.173Z,17.35
2019-03-12T10:43:41.276Z,3.83
2019-03-12T10:46:19.178Z,4.87
2019-03-12T10:48:50.048Z,8.98
2019-03-12T10:51:19.697Z,3.27
2019-03-12T10:53:49.431Z,3.27
2019-03-12T10:56:20.413Z,6.95
2019-03-12T10:58:50.089Z,4.10
2019-03-12T11:01:19.772Z,5.40
2019-03-12T11:03:49.463Z,10.67
2019-03-12T11:06:19.116Z,8.90
2019-03-12T11:08:48.763Z,3.90
2019-03-12T11:11:18.527Z,5.70
2019-03-12T11:13:49.470Z,4.80
2019-03-12T11:16:19.133Z,7.07
2019-03-12T11:18:48.778Z,4.70
2019-03-12T11:21:18.472Z,7.93
2019-03-12T11:23:48.079Z,2.43
2019-03-12T11:26:17.854Z,8.90
2019-03-12T11:28:47.487Z,7.93
2019-03-12T11:31:17.140Z,5.33
2019-03-12T11:33:49.233Z,4.67
2019-03-12T11:36:18.877Z,5.60
2019-03-12T11:38:48.552Z,5.47
2019-03-12T11:41:18.212Z,9.97
2019-03-12T11:43:47.833Z,7.13
2019-03-12T11:46:18.725Z,8.17
2019-03-12T11:48:48.351Z,7.43
2019-03-12T11:51:18.093Z,5.23
2019-03-12T11:53:47.971Z,6.00
2019-03-12T11:56:17.392Z,9.43
2019-03-12T11:58:47.189Z,3.90
2019-03-12T12:01:16.903Z,2.43
2019-03-12T12:03:46.637Z,4.00
2019-03-12T12:06:16.444Z,4.57
2019-03-12T12:08:46.071Z,3.57
2019-03-12T12:11:15.643Z,2.50
2019-03-12T12:13:45.345Z,6.40
2019-03-12T12:16:16.235Z,2.43
2019-03-12T12:18:45.841Z,2.50
2019-03-12T12:21:15.520Z,3.93
2019-03-12T12:23:45.220Z,4.10
2019-03-12T12:26:14.881Z,4.07
2019-03-12T12:28:44.542Z,4.27
2019-03-12T12:31:14.202Z,4.70
2019-03-12T12:33:43.892Z,3.47
2019-03-12T12:36:13.523Z,3.87
2019-03-12T12:38:43.143Z,5.00
2019-03-12T12:41:13.138Z,5.63
2019-03-12T12:43:46.422Z,7.23
2019-03-12T12:46:17.379Z,6.27
2019-03-12T12:48:47.083Z,5.23
2019-03-12T12:51:16.724Z,8.07
2019-03-12T12:53:46.375Z,8.47
2019-03-12T12:56:16.029Z,4.17
2019-03-12T12:58:45.666Z,5.50
2019-03-12T13:01:16.516Z,6.97
2019-03-12T13:03:47.462Z,5.10
2019-03-12T13:06:17.099Z,5.97
2019-03-12T13:08:49.062Z,4.73
2019-03-12T13:11:18.710Z,8.30
2019-03-12T13:13:48.411Z,7.77
2019-03-12T13:16:25.039Z,8.83
2019-03-12T13:18:49.015Z,7.27
2019-03-12T13:21:18.657Z,8.50
2019-03-12T13:23:48.383Z,5.30
2019-03-12T13:26:18.043Z,8.67
2019-03-12T13:28:47.685Z,4.90
2019-03-12T13:31:18.675Z,4.33
2019-03-12T13:33:48.335Z,8.10
2019-03-12T13:36:18.252Z,24.87
2019-03-12T13:38:49.267Z,7.43
2019-03-12T13:41:18.824Z,5.67
2019-03-12T13:43:48.502Z,7.57
2019-03-12T13:46:18.174Z,12.17
2019-03-12T13:48:48.037Z,7.70
2019-03-12T13:51:17.558Z,8.10
2019-03-12T13:53:47.235Z,7.60
2019-03-12T13:56:16.855Z,6.87
2019-03-12T13:58:48.957Z,15.27
2019-03-12T14:01:18.603Z,12.57
2019-03-12T14:03:48.251Z,7.67
2019-03-12T14:06:17.909Z,5.73
2019-03-12T14:08:47.720Z,6.47
2019-03-12T14:11:17.410Z,8.23
2019-03-12T14:13:47.042Z,9.47
2019-03-12T14:16:19.267Z,10.07
2019-03-12T14:18:48.955Z,9.07
2019-03-12T14:21:18.574Z,8.27
2019-03-12T14:24:03.970Z,8.37
2019-03-12T14:26:33.617Z,5.13
2019-03-12T14:29:03.308Z,11.70
2019-03-12T14:34:10.015Z,7.93
2019-03-12T14:36:39.768Z,11.57
2019-03-12T14:39:10.569Z,12.07
2019-03-12T14:41:41.387Z,13.70
2019-03-12T14:44:11.037Z,7.80
2019-03-12T14:46:40.698Z,10.27
2019-03-12T14:49:11.631Z,10.97
2019-03-12T14:51:53.897Z,12.33
2019-03-12T14:54:24.963Z,12.83
2019-03-12T14:56:54.626Z,12.67
2019-03-12T14:59:24.912Z,9.00
2019-03-12T15:01:56.855Z,9.37
2019-03-12T15:04:27.156Z,10.47
2019-03-12T15:06:56.839Z,16.50
2019-03-12T15:09:26.546Z,21.70
2019-03-12T15:11:56.204Z,18.13
2019-03-12T15:14:28.373Z,14.40
2019-03-12T15:16:58.055Z,10.90
2019-03-12T15:19:29.897Z,14.03
2019-03-12T15:21:59.507Z,14.60
2019-03-12T15:24:31.706Z,23.93
2019-03-12T15:27:02.111Z,20.63
2019-03-12T15:29:31.836Z,17.27
2019-03-12T15:32:04.414Z,14.57
2019-03-12T15:34:32.126Z,22.33
2019-03-12T15:37:01.859Z,62.67
2019-03-12T15:39:31.739Z,15.30
2019-03-12T15:42:01.796Z,13.03
2019-03-12T15:44:32.767Z,12.77
2019-03-12T15:47:03.708Z,10.97
2019-03-12T15:49:33.498Z,12.83
2019-03-12T15:52:04.558Z,7.90
2019-03-12T15:54:34.343Z,11.97
2019-03-12T15:57:04.090Z,10.77
2019-03-12T15:59:35.116Z,8.80
2019-03-12T16:02:04.790Z,13.53
2019-03-12T16:04:34.395Z,12.13
2019-03-12T16:07:04.133Z,19.67
2019-03-12T16:09:33.796Z,10.20
2019-03-12T16:12:04.794Z,9.13
2019-03-12T16:14:34.578Z,9.77
2019-03-12T16:17:04.200Z,13.13
2019-03-12T16:19:36.479Z,18.27
2019-03-12T16:22:06.127Z,10.63
2019-03-12T16:24:35.806Z,14.43
2019-03-12T16:27:05.473Z,49.10
2019-03-12T16:29:35.146Z,74.60
2019-03-12T16:32:04.788Z,37.87
2019-03-12T16:34:34.423Z,112.17
2019-03-12T16:37:04.099Z,79.50
2019-03-12T16:39:35.081Z,48.63
2019-03-12T16:42:04.754Z,26.40
2019-03-12T16:44:34.387Z,17.83
2019-03-12T16:47:04.034Z,12.90
2019-03-12T16:49:33.725Z,15.20
2019-03-12T16:52:04.606Z,17.83
2019-03-12T16:54:34.257Z,13.30
2019-03-12T16:57:03.910Z,9.60
2019-03-12T16:59:33.545Z,7.20
2019-03-12T17:02:03.330Z,10.93
2019-03-12T17:04:32.999Z,10.33
2019-03-12T17:07:03.978Z,15.50
2019-03-12T17:09:33.623Z,9.20
2019-03-12T17:12:05.816Z,8.70
2019-03-12T17:14:39.123Z,10.50
2019-03-12T17:17:05.359Z,12.30
2019-03-12T17:19:35.121Z,13.53
2019-03-12T17:22:04.788Z,19.87
2019-03-12T17:24:34.531Z,20.67
2019-03-12T17:27:04.333Z,36.57
2019-03-12T17:29:33.975Z,34.07
2019-03-12T17:32:03.646Z,33.53
2019-03-12T17:34:36.033Z,18.43
2019-03-12T17:37:04.135Z,22.13
2019-03-12T17:39:33.762Z,13.30
2019-03-12T17:42:05.953Z,17.03
2019-03-12T17:44:35.674Z,14.53
2019-03-12T17:47:06.646Z,16.83
2019-03-12T17:49:36.387Z,11.87
2019-03-12T17:52:07.315Z,16.10
2019-03-12T17:54:38.075Z,15.57
2019-03-12T17:57:07.853Z,12.17
2019-03-12T17:59:37.457Z,12.67
2019-03-12T18:02:07.178Z,13.27
2019-03-12T18:04:36.855Z,19.50
2019-03-12T18:07:06.526Z,29.60
2019-03-12T18:09:38.649Z,26.77
2019-03-12T18:12:08.763Z,34.23
2019-03-12T18:14:38.461Z,39.87
2019-03-12T18:17:08.663Z,40.70
2019-03-12T18:19:38.382Z,53.57
2019-03-12T18:22:08.049Z,57.07
2019-03-12T18:24:37.686Z,21.70
2019-03-12T18:27:08.689Z,58.43
2019-03-12T18:29:39.091Z,40.50
2019-03-12T18:32:11.255Z,53.97
2019-03-12T18:34:40.896Z,48.70
2019-03-12T18:37:10.524Z,53.37
2019-03-12T18:39:43.719Z,68.10
2019-03-12T18:42:19.927Z,66.97
2019-03-12T18:44:49.606Z,80.80
2019-03-12T18:47:20.537Z,61.87
2019-03-12T18:49:50.206Z,30.10
2019-03-12T18:52:19.853Z,26.63
2019-03-12T18:54:49.526Z,49.37
2019-03-12T18:57:19.265Z,52.53
2019-03-12T18:59:51.352Z,44.80
2019-03-12T19:02:20.977Z,37.23
2019-03-12T19:04:50.594Z,41.93
2019-03-12T19:07:22.605Z,22.37
2019-03-12T19:09:53.381Z,33.57
2019-03-12T19:12:26.684Z,40.50
2019-03-12T19:15:01.725Z,37.60
2019-03-12T19:17:33.967Z,47.70
2019-03-12T19:20:06.010Z,62.63
2019-03-12T19:22:36.611Z,90.07
2019-03-12T19:25:07.931Z,69.00
2019-03-12T19:27:37.616Z,94.43
2019-03-12T19:30:09.580Z,97.10
2019-03-12T19:32:43.555Z,115.37
2019-03-12T19:35:15.170Z,67.43
2019-03-12T19:37:47.875Z,64.03
2019-03-12T19:40:18.884Z,72.97
2019-03-12T19:42:50.703Z,101.87
2019-03-12T19:45:20.429Z,52.90
2019-03-12T19:47:50.170Z,49.73
2019-03-12T19:50:19.820Z,62.23
2019-03-12T19:52:49.505Z,110.17
2019-03-12T19:55:21.556Z,40.57
2019-03-12T19:57:51.208Z,51.50
2019-03-12T20:00:21.070Z,37.97
2019-03-12T20:02:50.817Z,60.93
2019-03-12T20:05:20.503Z,47.50
2019-03-12T20:07:53.866Z,44.03
2019-03-12T20:10:42.533Z,47.80
2019-03-12T20:13:26.443Z,23.93
2019-03-12T20:16:08.667Z,53.27
2019-03-12T20:18:52.383Z,55.07
2019-03-12T20:21:31.922Z,48.37
2019-03-12T20:24:16.875Z,35.53
2019-03-12T20:26:57.894Z,43.27
2019-03-12T20:29:56.621Z,43.17
2019-03-12T20:32:40.420Z,54.10
2019-03-12T20:35:25.065Z,58.10
2019-03-12T20:38:40.102Z,42.90
2019-03-12T20:43:26.461Z,31.73
2019-03-12T20:47:45.238Z,15.80
2019-03-12T20:50:27.444Z,38.07
2019-03-12T20:55:47.241Z,40.73
2019-03-12T20:58:36.418Z,32.47
2019-03-12T21:01:16.887Z,34.73
2019-03-12T21:04:02.565Z,27.50
2019-03-12T21:07:44.111Z,34.30
2019-03-12T21:13:32.526Z,27.83
2019-03-12T21:18:18.251Z,30.47
2019-03-12T21:21:03.835Z,18.50
2019-03-12T21:23:49.462Z,22.93
2019-03-12T21:26:50.097Z,28.73
2019-03-12T21:29:41.878Z,21.03
2019-03-12T21:32:11.843Z,26.03
2019-03-12T21:34:42.872Z,21.73
2019-03-12T21:37:12.776Z,19.27
2019-03-12T21:39:54.418Z,22.67
2019-03-12T21:42:12.107Z,21.67
2019-03-12T21:44:41.785Z,37.67
2019-03-12T21:47:12.649Z,38.23
2019-03-12T21:49:42.277Z,35.57
2019-03-12T21:52:11.939Z,21.83
2019-03-12T21:54:42.377Z,20.10
2019-03-12T21:57:13.322Z,21.77
2019-03-12T21:59:42.961Z,27.97
2019-03-12T22:02:13.878Z,18.37
2019-03-12T22:04:44.813Z,28.43
2019-03-12T22:07:14.450Z,20.60
2019-03-12T22:09:45.334Z,25.33
2019-03-12T22:12:14.958Z,28.53
2019-03-12T22:14:44.648Z,25.97
2019-03-12T22:17:15.616Z,24.00
2019-03-12T22:19:45.260Z,30.00
2019-03-12T22:22:20.407Z,24.80
2019-03-12T22:24:50.043Z,27.63
2019-03-12T22:27:19.751Z,28.90
2019-03-12T22:29:50.722Z,26.47
2019-03-12T22:32:20.375Z,27.07
2019-03-12T22:34:50.053Z,29.23
2019-03-12T22:37:19.943Z,19.43
2019-03-12T22:39:51.402Z,25.10
2019-03-12T22:42:21.105Z,19.47
2019-03-12T22:44:53.352Z,18.73
2019-03-12T22:47:23.278Z,22.00
2019-03-12T22:49:53.033Z,23.63
2019-03-12T22:52:23.823Z,19.80
2019-03-12T22:54:55.853Z,19.43
2019-03-12T22:57:25.544Z,18.70
2019-03-12T23:00:02.400Z,18.87
2019-03-12T23:02:39.070Z,14.40
2019-03-12T23:05:14.531Z,18.87
2019-03-12T23:07:49.931Z,15.03
2019-03-12T23:10:19.912Z,19.50
2019-03-12T23:12:49.642Z,19.20
2019-03-12T23:15:23.854Z,15.90
2019-03-12T23:17:54.514Z,16.83
2019-03-12T23:20:24.236Z,17.13
2019-03-12T23:22:55.415Z,20.97
2019-03-12T23:25:25.204Z,15.23
2019-03-12T23:27:54.920Z,14.77
2019-03-12T23:30:24.747Z,16.70
2019-03-12T23:32:55.643Z,18.80
2019-03-12T23:35:25.380Z,21.17
2019-03-12T23:37:55.115Z,19.23
2019-03-12T23:40:24.831Z,18.40
2019-03-12T23:42:56.016Z,18.57
2019-03-12T23:45:25.708Z,17.17
2019-03-12T23:47:55.405Z,18.07
2019-03-12T23:50:25.172Z,11.57
2019-03-12T23:52:56.056Z,15.00
2019-03-12T23:55:25.802Z,18.63
2019-03-12T23:57:55.512Z,15.97
